Jacky L O'neal — WDG3892 — position and weather

sailwx.info

Track history (hours):
 
Tides and Currents Weather Stations Pressure Air Temp Water Temp Dewpoint Dewpoint Depression Visibility Wind Speed Wind Dir Waves Ship Positions

Jacky L O'neal

Owner: American Commercial Lines LLC, Jeffersonville, IN. More information available from US FCC via Universal Licensing System and Coast Guard Vessel Documentation Center.

Last reported at 2016-Jul-29 18:08 UTC. Time now 2016-Jul-29 19:46 UTC.
Position N 32°40' W 091°07'.

Length 55 m; draft 2.9 m.

Type: Tow > 200 m length. MMSI: 367530760.

Date/timePositionNaut miles runAvg speedWind from/ knotsBaromVisibWave heightAir tempDewpointWater temp
2016-Jul-29 18:08N 32°40' W 091°07'2 3.1
2016-Jul-29 17:32N 32°39' W 091°09'3 3.4
2016-Jul-29 16:33N 32°36' W 091°08'4 3.8
2016-Jul-29 15:33N 32°32' W 091°06'4 4.4
2016-Jul-29 14:33N 32°28' W 091°06'4 4.2
2016-Jul-29 13:34N 32°26' W 091°02'3 3.4
2016-Jul-29 12:33N 32°23' W 090°60'3 2.8
2016-Jul-29 11:33N 32°21' W 090°58'3 3.0
2016-Jul-29 10:33N 32°20' W 090°54'4 4.0
2016-Jul-29 09:33N 32°17' W 090°57'4 3.8
2016-Jul-29 08:33N 32°13' W 090°59'4 4.1
2016-Jul-29 07:33N 32°09' W 091°00'3 3.3
2016-Jul-29 06:33N 32°07' W 091°03'3 2.8
2016-Jul-29 05:33N 32°07' W 091°06'4 3.9
2016-Jul-29 04:30N 32°03' W 091°03'8 4.0
2016-Jul-29 02:30N 31°58' W 091°11'5 4.8
2016-Jul-29 01:32N 31°54' W 091°12'8 4.0
2016-Jul-28 23:33N 31°51' W 091°21'  
2016-Jul-25 14:17N 31°50' W 091°21'5 6.7
2016-Jul-25 13:33N 31°51' W 091°16'8 7.8
2016-Jul-25 12:33N 31°58' W 091°11'7 7.3
2016-Jul-25 11:33N 32°02' W 091°04'6 6.2
2016-Jul-25 10:33N 32°08' W 091°06'5 5.5
2016-Jul-25 09:33N 32°11' W 090°60'8 7.9
2016-Jul-25 08:33N 32°18' W 090°56'4 4.3
2016-Jul-25 07:33N 32°21' W 090°59'6 6.2
2016-Jul-25 06:33N 32°26' W 091°03'7 6.9
2016-Jul-25 05:32N 32°33' W 091°06'7 7.4
2016-Jul-25 04:33N 32°40' W 091°08'  
Track history (hours):
 
Tides and Currents Weather Stations Pressure Air Temp Water Temp Dewpoint Dewpoint Depression Visibility Wind Speed Wind Dir Waves Ship Positions

Jacky L O'neal

Owner: American Commercial Lines LLC, Jeffersonville, IN. More information available from US FCC via Universal Licensing System and Coast Guard Vessel Documentation Center.

Last reported at 2016-Jul-29 18:08 UTC. Time now 2016-Jul-29 19:46 UTC.
Position N 32°40' W 091°07'.

Length 55 m; draft 2.9 m.

Type: Tow > 200 m length. MMSI: 367530760.

Date/timePositionNaut miles runAvg speedWind from/ knotsBaromVisibWave heightAir tempDewpointWater temp
2016-Jul-29 18:08N 32°40' W 091°07'2 3.1
2016-Jul-29 17:32N 32°39' W 091°09'3 3.4
2016-Jul-29 16:33N 32°36' W 091°08'4 3.8
2016-Jul-29 15:33N 32°32' W 091°06'4 4.4
2016-Jul-29 14:33N 32°28' W 091°06'4 4.2
2016-Jul-29 13:34N 32°26' W 091°02'3 3.4
2016-Jul-29 12:33N 32°23' W 090°60'3 2.8
2016-Jul-29 11:33N 32°21' W 090°58'3 3.0
2016-Jul-29 10:33N 32°20' W 090°54'4 4.0
2016-Jul-29 09:33N 32°17' W 090°57'4 3.8
2016-Jul-29 08:33N 32°13' W 090°59'4 4.1
2016-Jul-29 07:33N 32°09' W 091°00'3 3.3
2016-Jul-29 06:33N 32°07' W 091°03'3 2.8
2016-Jul-29 05:33N 32°07' W 091°06'4 3.9
2016-Jul-29 04:30N 32°03' W 091°03'8 4.0
2016-Jul-29 02:30N 31°58' W 091°11'5 4.8
2016-Jul-29 01:32N 31°54' W 091°12'8 4.0
2016-Jul-28 23:33N 31°51' W 091°21'  
2016-Jul-25 14:17N 31°50' W 091°21'5 6.7
2016-Jul-25 13:33N 31°51' W 091°16'8 7.8
2016-Jul-25 12:33N 31°58' W 091°11'7 7.3
2016-Jul-25 11:33N 32°02' W 091°04'6 6.2
2016-Jul-25 10:33N 32°08' W 091°06'5 5.5
2016-Jul-25 09:33N 32°11' W 090°60'8 7.9
2016-Jul-25 08:33N 32°18' W 090°56'4 4.3
2016-Jul-25 07:33N 32°21' W 090°59'6 6.2
2016-Jul-25 06:33N 32°26' W 091°03'7 6.9
2016-Jul-25 05:32N 32°33' W 091°06'7 7.4
2016-Jul-25 04:33N 32°40' W 091°08'  

Dump ship's entire track history